Time;durP1;ratioP1;P1;durP2;ratioP2;P2;SDS_P1;SDS_P2;PMS_P1;PMS_P2;Temp;Humidity;BMP_temperature;BMP_pressure;BME280_temperature;BME280_humidity;BME280_pressure;Samples;Min_cycle;Max_cycle;Signal;HPM_P1;HPM_P2
2022/03/13 00:02:17;;;;;;;18.52;9.05;;;-0.50;99.90;;;;;;4937612;29;20515;-89
2022/03/13 00:04:50;;;;;;;20.63;9.48;;;-0.50;99.90;;;;;;4953728;29;20396;-89
2022/03/13 00:07:25;;;;;;;20.77;9.75;;;-0.60;99.90;;;;;;4953553;29;20400;-89
2022/03/13 00:09:52;;;;;;;19.35;9.57;;;-0.60;99.90;;;;;;4953757;29;20396;-89
2022/03/13 00:12:31;;;;;;;20.57;10.07;;;-0.60;99.90;;;;;;4953808;29;20385;-90
2022/03/13 00:15:03;;;;;;;19.45;9.77;;;-0.60;99.90;;;;;;4954721;29;20463;-90
2022/03/13 00:17:31;;;;;;;19.27;9.70;;;-0.60;99.90;;;;;;4953370;29;20396;-88
2022/03/13 00:20:02;;;;;;;17.83;9.32;;;-0.60;99.90;;;;;;4953148;28;20399;-89
2022/03/13 00:22:33;;;;;;;19.52;9.13;;;-0.70;99.90;;;;;;4953258;29;20998;-89
2022/03/13 00:25:02;;;;;;;17.40;9.05;;;-0.70;99.90;;;;;;4953188;29;20400;-89
2022/03/13 00:27:31;;;;;;;20.63;9.13;;;-0.70;99.90;;;;;;4953301;29;20404;-89
2022/03/13 00:29:59;;;;;;;17.75;8.85;;;-0.70;99.90;;;;;;4953235;29;20400;-89
2022/03/13 00:32:26;;;;;;;17.43;8.90;;;-0.80;99.90;;;;;;4953283;29;20394;-90
2022/03/13 00:34:54;;;;;;;19.38;9.32;;;-0.80;99.90;;;;;;4953354;29;20399;-89
2022/03/13 00:37:21;;;;;;;17.97;8.77;;;-0.90;99.90;;;;;;4953149;29;20396;-89
2022/03/13 00:39:50;;;;;;;18.92;8.60;;;-0.90;99.90;;;;;;4952931;29;20436;-89
2022/03/13 00:42:18;;;;;;;17.33;8.60;;;-0.90;99.90;;;;;;4953440;29;20439;-89
2022/03/13 00:44:45;;;;;;;18.35;9.02;;;-0.90;99.90;;;;;;4953264;29;20940;-89
2022/03/13 00:47:13;;;;;;;17.65;9.13;;;-0.90;99.90;;;;;;4954263;29;20411;-90
2022/03/13 00:49:41;;;;;;;17.80;9.32;;;-0.90;99.90;;;;;;4953072;29;20408;-89
2022/03/13 00:52:13;;;;;;;19.03;9.57;;;-0.90;99.90;;;;;;4938030;29;20399;-90
2022/03/13 00:54:40;;;;;;;18.60;9.20;;;-0.90;99.90;;;;;;4937133;29;20401;-89
2022/03/13 00:57:08;;;;;;;18.70;9.07;;;-0.90;99.90;;;;;;4937000;29;20411;-89
2022/03/13 00:59:36;;;;;;;19.77;10.00;;;-1.00;99.90;;;;;;4952868;29;20418;-89
2022/03/13 01:02:04;;;;;;;20.33;9.60;;;-1.00;99.90;;;;;;4953002;29;20458;-89
2022/03/13 01:04:32;;;;;;;21.00;9.90;;;-1.00;99.90;;;;;;4953020;29;20520;-88
2022/03/13 01:07:00;;;;;;;20.35;9.98;;;-1.00;99.90;;;;;;4936842;29;20484;-88
2022/03/13 01:09:27;;;;;;;21.85;10.23;;;-1.00;99.90;;;;;;4953144;29;20408;-89
2022/03/13 01:11:55;;;;;;;18.08;9.32;;;-1.10;99.90;;;;;;4953035;29;20455;-89
2022/03/13 01:14:23;;;;;;;21.52;10.52;;;-1.10;99.90;;;;;;4952926;29;20443;-90
2022/03/13 01:17:04;;;;;;;17.33;9.43;;;-1.10;99.90;;;;;;4953135;29;20421;-90
2022/03/13 01:19:32;;;;;;;19.67;9.82;;;-1.10;99.90;;;;;;4936896;29;20415;-89
2022/03/13 01:22:00;;;;;;;19.75;9.73;;;-1.10;99.90;;;;;;4952785;29;20404;-89
2022/03/13 01:24:43;;;;;;;18.73;9.50;;;-1.20;99.90;;;;;;4936794;29;20399;-89
2022/03/13 01:27:13;;;;;;;18.88;9.57;;;-1.20;99.90;;;;;;4952694;29;20447;-88
2022/03/13 01:29:41;;;;;;;19.90;10.10;;;-1.10;99.90;;;;;;4952692;29;20414;-89
2022/03/13 01:32:10;;;;;;;21.55;10.05;;;-1.20;99.90;;;;;;4939193;29;20406;-88
2022/03/13 01:34:51;;;;;;;19.57;10.03;;;-1.20;99.90;;;;;;4940192;29;20404;-89
2022/03/13 01:37:29;;;;;;;21.85;10.23;;;-1.30;99.90;;;;;;4956559;29;20407;-89
2022/03/13 01:40:01;;;;;;;20.20;9.97;;;-1.20;99.90;;;;;;4956583;29;20412;-89
2022/03/13 01:42:28;;;;;;;20.73;10.27;;;-1.30;99.90;;;;;;4939795;29;20412;-88
2022/03/13 01:44:56;;;;;;;19.70;10.07;;;-1.30;99.90;;;;;;4955532;28;20982;-89
2022/03/13 01:47:24;;;;;;;20.33;10.15;;;-1.30;99.90;;;;;;4924474;29;20404;-89
2022/03/13 01:49:52;;;;;;;21.00;10.35;;;-1.30;99.90;;;;;;4955416;29;20411;-89
2022/03/13 01:52:28;;;;;;;21.70;10.20;;;-1.40;99.90;;;;;;4937159;29;20401;-89
2022/03/13 01:54:57;;;;;;;20.98;10.30;;;-1.30;99.90;;;;;;4937044;29;20410;-89
2022/03/13 01:57:25;;;;;;;20.30;10.00;;;-1.30;99.90;;;;;;4936969;29;20427;-89
2022/03/13 01:59:58;;;;;;;22.15;10.55;;;-1.40;99.90;;;;;;4921012;29;20514;-89
2022/03/13 02:02:29;;;;;;;19.80;9.68;;;-1.40;99.90;;;;;;4937925;29;20520;-89
2022/03/13 02:04:57;;;;;;;21.13;10.10;;;-1.40;99.90;;;;;;4937242;29;20398;-89
2022/03/13 02:07:28;;;;;;;20.33;10.05;;;-1.40;99.90;;;;;;4937677;29;20424;-89
2022/03/13 02:09:55;;;;;;;20.08;10.05;;;-1.40;99.90;;;;;;4921156;29;20417;-89
2022/03/13 02:12:26;;;;;;;19.08;9.77;;;-1.50;99.90;;;;;;4936710;29;20413;-88
2022/03/13 02:14:54;;;;;;;21.00;10.10;;;-1.50;99.90;;;;;;4936635;29;20408;-89
2022/03/13 02:17:33;;;;;;;19.05;9.80;;;-1.50;99.90;;;;;;4936838;29;20393;-89
2022/03/13 02:20:02;;;;;;;21.55;9.98;;;-1.60;99.90;;;;;;4936392;29;20394;-89
2022/03/13 02:22:31;;;;;;;19.20;9.80;;;-1.50;99.90;;;;;;4936328;29;20428;-89
2022/03/13 02:24:59;;;;;;;18.05;9.13;;;-1.60;99.90;;;;;;4955391;29;20497;-89
2022/03/13 02:27:29;;;;;;;20.50;10.27;;;-1.60;99.90;;;;;;4955629;29;20396;-89
2022/03/13 02:29:57;;;;;;;20.88;10.13;;;-1.60;99.90;;;;;;4955234;29;20404;-89
2022/03/13 02:32:24;;;;;;;19.55;9.73;;;-1.70;99.90;;;;;;4955547;29;20946;-89
2022/03/13 02:34:55;;;;;;;19.20;9.70;;;-1.70;99.90;;;;;;4955543;29;20404;-89
2022/03/13 02:37:34;;;;;;;21.45;10.48;;;-1.70;99.90;;;;;;4955003;29;20412;-89
2022/03/13 02:40:03;;;;;;;22.45;11.15;;;-1.70;99.90;;;;;;4938802;29;21130;-88
2022/03/13 02:42:33;;;;;;;19.67;9.85;;;-1.70;99.90;;;;;;4960419;28;20442;-88
2022/03/13 02:45:01;;;;;;;19.57;10.23;;;-1.70;99.90;;;;;;4954936;28;20436;-89
2022/03/13 02:47:29;;;;;;;22.17;10.65;;;-1.70;99.90;;;;;;4955486;29;20396;-90
2022/03/13 02:49:56;;;;;;;21.02;10.15;;;-1.70;99.90;;;;;;4939131;29;20440;-89
2022/03/13 02:52:24;;;;;;;20.58;10.25;;;-1.80;99.90;;;;;;4955387;29;20400;-89
2022/03/13 02:54:51;;;;;;;21.85;9.73;;;-1.80;99.90;;;;;;4939101;29;20487;-89
2022/03/13 02:57:18;;;;;;;20.70;9.68;;;-1.80;99.90;;;;;;4946709;28;20461;-88
2022/03/13 02:59:46;;;;;;;19.67;9.93;;;-1.80;99.90;;;;;;4975296;28;20881;-88
2022/03/13 03:02:14;;;;;;;18.88;9.02;;;-1.80;99.90;;;;;;4974156;28;20398;-89
2022/03/13 03:04:44;;;;;;;20.92;9.82;;;-1.80;99.90;;;;;;4958123;28;20434;-89
2022/03/13 03:07:11;;;;;;;18.45;9.70;;;-1.90;99.90;;;;;;4975134;28;20399;-89
2022/03/13 03:09:39;;;;;;;21.23;9.45;;;-1.80;99.90;;;;;;4957828;28;20445;-89
2022/03/13 03:12:08;;;;;;;20.50;9.32;;;-1.80;99.90;;;;;;4975020;28;20453;-90
2022/03/13 03:14:35;;;;;;;19.10;9.37;;;-1.90;99.90;;;;;;4957683;28;20429;-88
2022/03/13 03:17:04;;;;;;;21.45;10.27;;;-1.90;99.90;;;;;;4974297;28;20398;-89
2022/03/13 03:19:32;;;;;;;21.05;9.68;;;-1.90;99.90;;;;;;4957873;28;20477;-88
2022/03/13 03:21:59;;;;;;;19.30;9.68;;;-1.90;99.90;;;;;;4973743;28;20884;-87
2022/03/13 03:24:27;;;;;;;21.38;10.15;;;-1.90;99.90;;;;;;4959569;28;20396;-88
2022/03/13 03:26:55;;;;;;;19.88;9.98;;;-2.00;99.90;;;;;;4962622;28;20798;-89
2022/03/13 03:29:26;;;;;;;22.33;10.50;;;-2.00;99.90;;;;;;4957500;28;20406;-88
2022/03/13 03:31:55;;;;;;;19.58;9.65;;;-2.00;99.90;;;;;;4973793;28;20405;-89
2022/03/13 03:34:26;;;;;;;20.58;9.95;;;-2.00;99.90;;;;;;4973958;28;20390;-89
2022/03/13 03:36:56;;;;;;;21.23;10.23;;;-2.00;99.90;;;;;;4957596;28;20423;-89
2022/03/13 03:39:25;;;;;;;20.98;10.02;;;-2.00;99.90;;;;;;4957505;28;20500;-88
2022/03/13 03:41:54;;;;;;;20.23;10.27;;;-2.00;99.90;;;;;;4957330;28;20453;-89
2022/03/13 03:44:22;;;;;;;21.70;10.98;;;-2.00;99.90;;;;;;4957458;28;20457;-88
2022/03/13 03:46:52;;;;;;;20.65;10.55;;;-2.10;99.90;;;;;;4957109;28;20399;-88
2022/03/13 03:49:19;;;;;;;22.55;10.98;;;-2.10;99.90;;;;;;4956793;28;20498;-88
2022/03/13 03:51:47;;;;;;;22.10;11.20;;;-2.10;99.90;;;;;;4974438;28;20394;-89
2022/03/13 03:54:14;;;;;;;24.83;11.38;;;-2.10;99.90;;;;;;4956746;28;20406;-89
2022/03/13 03:56:42;;;;;;;21.67;11.33;;;-2.10;99.90;;;;;;4969863;28;20479;-88
2022/03/13 03:59:10;;;;;;;23.85;11.85;;;-2.10;99.90;;;;;;4948546;29;20939;-88
2022/03/13 04:01:43;;;;;;;22.33;10.85;;;-2.10;99.90;;;;;;4937737;29;20403;-87
2022/03/13 04:04:17;;;;;;;23.40;12.18;;;-2.10;99.90;;;;;;4956340;28;20803;-87
2022/03/13 04:06:45;;;;;;;23.50;11.80;;;-2.10;99.90;;;;;;4940134;29;20487;-88
2022/03/13 04:09:13;;;;;;;23.47;11.47;;;-2.10;99.90;;;;;;4953943;29;20420;-88
2022/03/13 04:11:40;;;;;;;21.67;11.68;;;-2.20;99.90;;;;;;4969437;28;20396;-88
2022/03/13 04:14:11;;;;;;;24.70;12.32;;;-2.20;99.90;;;;;;4953607;29;20410;-88
2022/03/13 04:16:39;;;;;;;24.63;12.35;;;-2.20;99.90;;;;;;4953970;29;20408;-88
2022/03/13 04:19:09;;;;;;;25.38;13.23;;;-2.20;99.90;;;;;;4969453;28;20411;-88
2022/03/13 04:21:40;;;;;;;24.88;13.23;;;-2.20;99.90;;;;;;4953798;29;20404;-89
2022/03/13 04:24:09;;;;;;;27.52;14.23;;;-2.20;99.90;;;;;;4952512;29;20915;-89
2022/03/13 04:26:39;;;;;;;23.15;13.13;;;-2.20;99.90;;;;;;4953353;29;20440;-88
2022/03/13 04:29:09;;;;;;;26.58;13.55;;;-2.20;99.90;;;;;;4969557;28;20416;-89
2022/03/13 04:31:41;;;;;;;24.95;13.38;;;-2.20;99.90;;;;;;4953335;29;20396;-88
2022/03/13 04:34:15;;;;;;;23.70;13.27;;;-2.20;99.90;;;;;;4953383;29;20408;-88
2022/03/13 04:36:44;;;;;;;24.08;13.63;;;-2.30;99.90;;;;;;4928312;29;20417;-88
2022/03/13 04:39:11;;;;;;;27.85;14.55;;;-2.30;99.90;;;;;;4934953;29;20398;-86
2022/03/13 04:41:39;;;;;;;24.95;14.18;;;-2.30;99.90;;;;;;4934115;29;20517;-88
2022/03/13 04:44:08;;;;;;;24.33;13.95;;;-2.30;99.90;;;;;;4949881;29;20402;-87
2022/03/13 04:46:35;;;;;;;25.77;15.02;;;-2.30;99.90;;;;;;4934047;29;20413;-88
2022/03/13 04:49:03;;;;;;;26.58;15.45;;;-2.30;99.90;;;;;;4935053;29;20420;-88
2022/03/13 04:51:32;;;;;;;27.50;15.30;;;-2.30;99.90;;;;;;4953117;29;20404;-87
2022/03/13 04:53:59;;;;;;;26.98;15.63;;;-2.30;99.90;;;;;;4934464;29;20480;-87
2022/03/13 04:56:27;;;;;;;30.00;16.83;;;-2.30;99.90;;;;;;4949460;29;20409;-87
2022/03/13 04:58:54;;;;;;;28.50;16.30;;;-2.30;99.90;;;;;;4949681;29;20406;-87
2022/03/13 05:01:22;;;;;;;27.08;16.50;;;-2.40;99.90;;;;;;4916569;29;20420;-89
2022/03/13 05:03:50;;;;;;;30.05;17.63;;;-2.30;99.90;;;;;;4930670;29;20788;-88
2022/03/13 05:06:17;;;;;;;27.90;16.53;;;-2.30;99.90;;;;;;4947424;28;20392;-87
2022/03/13 05:08:45;;;;;;;29.73;17.90;;;-2.40;99.90;;;;;;4957707;28;20392;-89
2022/03/13 05:11:12;;;;;;;28.77;17.50;;;-2.40;99.90;;;;;;4957006;29;20388;-88
2022/03/13 05:13:39;;;;;;;29.07;16.73;;;-2.40;99.90;;;;;;4956980;29;20432;-87
2022/03/13 05:16:12;;;;;;;26.80;16.52;;;-2.50;99.90;;;;;;4957965;29;20407;-89
2022/03/13 05:18:40;;;;;;;27.17;16.57;;;-2.50;99.90;;;;;;4956710;28;20396;-88
2022/03/13 05:21:07;;;;;;;28.20;16.38;;;-2.50;99.90;;;;;;4968410;28;20886;-88
2022/03/13 05:23:35;;;;;;;29.92;17.27;;;-2.50;99.90;;;;;;4956657;29;20950;-88
2022/03/13 05:26:02;;;;;;;27.13;16.05;;;-2.50;99.90;;;;;;4957531;28;20429;-88
2022/03/13 05:28:30;;;;;;;27.55;15.10;;;-2.50;99.90;;;;;;4938556;29;20919;-89
2022/03/13 05:30:57;;;;;;;25.83;15.10;;;-2.50;99.90;;;;;;4953227;29;20489;-88
2022/03/13 05:33:25;;;;;;;31.67;17.20;;;-2.60;99.90;;;;;;4922586;29;20471;-88
2022/03/13 05:35:52;;;;;;;31.30;17.65;;;-2.60;99.90;;;;;;4934296;29;20904;-87
2022/03/13 05:38:20;;;;;;;28.73;16.38;;;-2.60;99.90;;;;;;4933925;29;20407;-88
2022/03/13 05:40:47;;;;;;;27.88;16.35;;;-2.50;99.90;;;;;;4933797;29;20462;-88
2022/03/13 05:43:15;;;;;;;24.70;14.82;;;-2.50;99.90;;;;;;4934039;29;20404;-88
2022/03/13 05:45:47;;;;;;;20.10;12.32;;;-2.40;99.90;;;;;;4919274;29;20407;-87
2022/03/13 05:48:17;;;;;;;19.40;11.90;;;-2.40;99.90;;;;;;4918150;29;20626;-87
2022/03/13 05:50:46;;;;;;;20.70;13.00;;;-2.40;99.90;;;;;;4933880;29;20422;-88
2022/03/13 05:53:14;;;;;;;20.63;12.67;;;-2.40;99.90;;;;;;4933976;29;20391;-88
2022/03/13 05:55:41;;;;;;;24.17;13.73;;;-2.40;99.90;;;;;;4933653;29;20406;-88
2022/03/13 05:58:10;;;;;;;26.13;15.57;;;-2.40;99.90;;;;;;4933959;29;20403;-89
2022/03/13 06:00:39;;;;;;;23.23;14.77;;;-2.40;99.90;;;;;;4917801;29;20455;-88
2022/03/13 06:03:08;;;;;;;24.80;14.43;;;-2.30;99.90;;;;;;4966842;28;20938;-88
2022/03/13 06:05:36;;;;;;;22.20;13.32;;;-2.30;99.90;;;;;;4955647;29;20899;-88
2022/03/13 06:08:04;;;;;;;24.15;14.15;;;-2.30;99.90;;;;;;4972151;28;20887;-88
2022/03/13 06:10:32;;;;;;;26.23;14.75;;;-2.20;99.90;;;;;;4955748;28;20423;-88
2022/03/13 06:13:00;;;;;;;25.42;15.57;;;-2.20;99.90;;;;;;4971544;28;20402;-88
2022/03/13 06:15:28;;;;;;;24.92;14.10;;;-2.30;99.90;;;;;;4956839;28;20475;-88
2022/03/13 06:17:57;;;;;;;22.63;13.35;;;-2.30;99.90;;;;;;4955358;28;20413;-89
2022/03/13 06:20:25;;;;;;;26.58;14.60;;;-2.30;99.90;;;;;;4971735;28;20392;-88
2022/03/13 06:22:53;;;;;;;25.15;14.20;;;-2.20;99.90;;;;;;4971483;28;20399;-88
2022/03/13 06:25:21;;;;;;;26.42;14.43;;;-2.20;99.90;;;;;;4955652;29;20400;-88
2022/03/13 06:27:48;;;;;;;26.83;14.88;;;-2.20;99.90;;;;;;4956346;28;20771;-88
2022/03/13 06:30:16;;;;;;;23.23;14.40;;;-2.30;99.90;;;;;;4944789;28;20416;-87
2022/03/13 06:32:50;;;;;;;27.02;15.40;;;-2.30;99.90;;;;;;4917090;29;20423;-89
2022/03/13 06:35:20;;;;;;;28.05;14.38;;;-2.30;99.90;;;;;;4940921;28;20483;-87
2022/03/13 06:37:52;;;;;;;26.27;15.00;;;-2.30;99.90;;;;;;4917149;29;20400;-88
2022/03/13 06:40:22;;;;;;;27.95;15.27;;;-2.30;99.90;;;;;;4940973;28;20472;-87
2022/03/13 06:42:56;;;;;;;29.77;15.73;;;-2.30;99.90;;;;;;4918863;29;20459;-88
2022/03/13 06:45:25;;;;;;;27.10;15.70;;;-2.30;99.90;;;;;;4932737;29;20411;-88
2022/03/13 06:47:52;;;;;;;27.70;15.13;;;-2.30;99.90;;;;;;4932807;29;20408;-88
2022/03/13 06:50:23;;;;;;;26.40;15.13;;;-2.30;99.90;;;;;;4932634;29;20415;-88
2022/03/13 06:52:53;;;;;;;27.77;15.98;;;-2.20;99.90;;;;;;4932837;29;20414;-88
2022/03/13 06:55:22;;;;;;;28.87;16.10;;;-2.20;99.90;;;;;;4936766;28;20426;-87
2022/03/13 06:57:50;;;;;;;26.45;15.18;;;-2.20;99.90;;;;;;4952015;28;20835;-87
2022/03/13 07:00:19;;;;;;;28.83;17.02;;;-2.20;99.90;;;;;;4952404;28;20511;-87
2022/03/13 07:02:55;;;;;;;28.80;16.98;;;-2.10;99.90;;;;;;4964979;28;20420;-87
2022/03/13 07:05:24;;;;;;;29.65;16.40;;;-2.10;99.90;;;;;;4950248;28;20412;-88
2022/03/13 07:07:57;;;;;;;29.50;17.30;;;-2.10;99.90;;;;;;4957723;28;20898;-87
2022/03/13 07:10:25;;;;;;;25.77;15.82;;;-2.00;99.90;;;;;;4957805;28;20402;-87
2022/03/13 07:12:55;;;;;;;27.13;15.90;;;-2.00;99.90;;;;;;4950792;29;20405;-88
2022/03/13 07:15:23;;;;;;;26.57;15.73;;;-2.00;99.90;;;;;;4942020;29;20408;-88
2022/03/13 07:17:51;;;;;;;26.08;14.73;;;-1.90;99.90;;;;;;4955093;29;20403;-87
2022/03/13 07:20:21;;;;;;;23.58;12.82;;;-1.80;99.90;;;;;;4954319;28;20476;-88
2022/03/13 07:22:49;;;;;;;22.60;12.77;;;-1.80;99.90;;;;;;4946099;29;20405;-88
2022/03/13 07:25:17;;;;;;;21.75;13.13;;;-1.70;99.90;;;;;;4934803;29;20398;-87
2022/03/13 07:27:45;;;;;;;22.48;11.55;;;-1.70;99.90;;;;;;4969714;28;20467;-87
2022/03/13 07:30:14;;;;;;;21.52;11.05;;;-1.60;99.90;;;;;;4939010;29;20464;-87
2022/03/13 07:32:44;;;;;;;21.45;10.50;;;-1.50;99.90;;;;;;4951554;28;20494;-88
2022/03/13 07:35:12;;;;;;;20.20;10.38;;;-1.50;99.90;;;;;;4943240;29;20416;-88
2022/03/13 07:37:43;;;;;;;19.73;10.93;;;-1.50;99.90;;;;;;4941491;29;20394;-88
2022/03/13 07:40:11;;;;;;;21.45;11.15;;;-1.40;99.90;;;;;;4935037;29;20939;-88
2022/03/13 07:42:39;;;;;;;21.42;10.50;;;-1.30;99.90;;;;;;4918954;29;20409;-87
2022/03/13 07:45:09;;;;;;;21.40;11.10;;;-1.30;99.90;;;;;;4945752;29;20417;-87
2022/03/13 07:47:37;;;;;;;20.50;10.15;;;-1.30;99.90;;;;;;4939756;29;20887;-89
2022/03/13 07:50:06;;;;;;;20.02;9.93;;;-1.20;99.90;;;;;;4953903;29;20439;-88
2022/03/13 07:52:34;;;;;;;17.98;9.95;;;-1.10;99.90;;;;;;4953969;29;20489;-88
2022/03/13 07:55:02;;;;;;;19.50;10.25;;;-1.10;99.90;;;;;;4953926;29;20840;-88
2022/03/13 07:57:30;;;;;;;18.73;9.68;;;-1.10;99.90;;;;;;4950574;28;20402;-87
2022/03/13 07:59:57;;;;;;;20.43;10.63;;;-1.00;99.90;;;;;;4973026;28;20453;-86
2022/03/13 08:02:26;;;;;;;20.63;10.43;;;-0.90;99.90;;;;;;4973072;28;20398;-89
2022/03/13 08:04:54;;;;;;;19.93;10.13;;;-0.90;99.90;;;;;;4972780;28;20403;-88
2022/03/13 08:07:21;;;;;;;19.13;10.27;;;-0.90;99.90;;;;;;4962042;28;20764;-88
2022/03/13 08:09:49;;;;;;;19.63;10.35;;;-0.90;99.90;;;;;;4937335;28;20426;-87
2022/03/13 08:12:18;;;;;;;18.23;9.30;;;-0.90;99.90;;;;;;4951738;28;20415;-88
2022/03/13 08:14:45;;;;;;;21.57;9.60;;;-0.80;99.90;;;;;;4968153;28;20773;-86
2022/03/13 08:17:15;;;;;;;21.73;9.82;;;-0.70;99.90;;;;;;4953011;28;20398;-89
2022/03/13 08:19:43;;;;;;;21.45;10.02;;;-0.70;99.90;;;;;;4953796;28;20902;-87
2022/03/13 08:22:11;;;;;;;18.53;9.23;;;-0.70;99.90;;;;;;4936437;29;20500;-87
2022/03/13 08:24:38;;;;;;;19.83;10.00;;;-0.60;99.90;;;;;;4921552;29;20783;-87
2022/03/13 08:27:06;;;;;;;18.77;9.30;;;-0.60;99.90;;;;;;4934693;28;20865;-88
2022/03/13 08:29:34;;;;;;;19.65;9.45;;;-0.50;99.90;;;;;;4931208;29;20499;-87
2022/03/13 08:32:03;;;;;;;17.07;9.23;;;-0.40;99.90;;;;;;4936964;29;20401;-87
2022/03/13 08:34:33;;;;;;;18.25;9.35;;;-0.40;99.90;;;;;;4936882;29;20400;-87
2022/03/13 08:37:03;;;;;;;19.88;10.02;;;-0.40;99.90;;;;;;4928448;28;20741;-87
2022/03/13 08:39:34;;;;;;;19.45;9.65;;;-0.30;99.90;;;;;;4947384;28;20438;-88
2022/03/13 08:42:04;;;;;;;17.27;9.23;;;-0.30;99.90;;;;;;4956325;28;20416;-87
2022/03/13 08:44:32;;;;;;;18.38;9.80;;;-0.20;99.90;;;;;;4972233;28;20421;-88
2022/03/13 08:47:02;;;;;;;19.55;9.70;;;-0.20;99.90;;;;;;4956644;28;20407;-88
2022/03/13 08:49:30;;;;;;;18.45;8.85;;;-0.10;99.90;;;;;;4955573;28;21008;-88
2022/03/13 08:51:58;;;;;;;17.57;9.17;;;-0.10;99.90;;;;;;4956560;28;20410;-88
2022/03/13 08:54:25;;;;;;;18.20;9.50;;;-0.10;99.90;;;;;;4971253;28;20398;-89
2022/03/13 08:56:53;;;;;;;18.53;9.73;;;-0.10;99.90;;;;;;4954706;28;20773;-89
2022/03/13 08:59:21;;;;;;;19.23;9.85;;;0.00;99.90;;;;;;4956266;28;20390;-88
2022/03/13 09:01:52;;;;;;;18.48;9.40;;;0.00;99.90;;;;;;4973089;28;20449;-88
2022/03/13 09:04:20;;;;;;;17.33;9.15;;;0.10;99.90;;;;;;4964405;28;20418;-87
2022/03/13 09:06:49;;;;;;;17.02;9.15;;;0.20;99.90;;;;;;4946176;29;20399;-89
2022/03/13 09:09:19;;;;;;;20.23;10.25;;;0.30;99.90;;;;;;4952981;29;20393;-88
2022/03/13 09:11:47;;;;;;;17.30;9.27;;;0.30;99.90;;;;;;4936980;29;20423;-89
2022/03/13 09:14:14;;;;;;;17.98;9.10;;;0.40;99.90;;;;;;4953131;29;20479;-88
2022/03/13 09:16:42;;;;;;;18.80;9.37;;;0.40;99.90;;;;;;4937173;29;20407;-86
2022/03/13 09:19:10;;;;;;;25.73;12.68;;;0.40;99.90;;;;;;4952594;29;20567;-88
2022/03/13 09:21:38;;;;;;;20.35;10.00;;;0.40;99.90;;;;;;4933678;29;20468;-88
2022/03/13 09:24:08;;;;;;;19.13;9.68;;;0.50;99.90;;;;;;4933442;29;20956;-86
2022/03/13 09:26:43;;;;;;;18.75;9.90;;;0.50;99.90;;;;;;4950648;28;20497;-88
2022/03/13 09:29:11;;;;;;;17.35;9.25;;;0.60;99.90;;;;;;4937051;29;20405;-88
2022/03/13 09:31:38;;;;;;;17.02;9.50;;;0.70;99.90;;;;;;4946967;28;20444;-87
2022/03/13 09:34:06;;;;;;;17.05;8.90;;;0.70;99.90;;;;;;4954581;28;20402;-87
2022/03/13 09:36:36;;;;;;;18.05;9.20;;;0.80;99.90;;;;;;4936726;29;20394;-87
2022/03/13 09:39:05;;;;;;;18.55;8.60;;;0.90;99.90;;;;;;4953939;29;20724;-90
2022/03/13 09:41:34;;;;;;;26.20;13.73;;;1.00;99.90;;;;;;4954698;29;20428;-91
2022/03/13 09:44:02;;;;;;;18.38;9.55;;;1.00;99.90;;;;;;4936402;29;20483;-90
2022/03/13 09:46:29;;;;;;;17.80;8.73;;;1.00;99.90;;;;;;4920710;29;20404;-91
2022/03/13 09:48:58;;;;;;;17.75;8.27;;;1.00;99.90;;;;;;4936657;29;20403;-91
2022/03/13 09:51:25;;;;;;;17.52;9.00;;;1.20;99.90;;;;;;4936588;29;20408;-91
2022/03/13 09:53:53;;;;;;;20.00;8.93;;;1.20;99.90;;;;;;4955871;29;20400;-92
2022/03/13 09:56:21;;;;;;;19.20;9.15;;;1.20;99.90;;;;;;4924314;29;20462;-92
2022/03/13 09:58:48;;;;;;;15.80;8.63;;;1.20;99.90;;;;;;4940403;29;20400;-91
2022/03/13 10:01:16;;;;;;;17.73;8.82;;;1.30;99.90;;;;;;4956284;29;20879;-91
2022/03/13 10:03:44;;;;;;;17.15;9.15;;;1.50;99.90;;;;;;4956298;29;20412;-91
2022/03/13 10:06:13;;;;;;;15.60;9.18;;;1.60;99.90;;;;;;4924458;29;20399;-91
2022/03/13 10:08:40;;;;;;;18.88;9.80;;;1.60;99.90;;;;;;4956129;29;20400;-92
2022/03/13 10:11:10;;;;;;;18.13;9.03;;;1.60;99.90;;;;;;4940098;29;20443;-92
2022/03/13 10:13:45;;;;;;;18.00;8.77;;;1.60;99.90;;;;;;4940289;29;20491;-91
2022/03/13 10:16:34;;;;;;;18.83;9.85;;;1.80;99.90;;;;;;4956124;29;20412;-91
2022/03/13 10:19:19;;;;;;;18.13;9.57;;;1.80;99.90;;;;;;4940056;29;20909;-91
2022/03/13 10:22:07;;;;;;;16.73;8.48;;;1.90;99.90;;;;;;4956256;29;20471;-92
2022/03/13 10:24:40;;;;;;;15.40;7.65;;;2.00;99.90;;;;;;4955910;29;20408;-92
2022/03/13 10:27:16;;;;;;;15.50;7.68;;;2.30;99.90;;;;;;4955883;29;20448;-91
2022/03/13 10:29:47;;;;;;;16.42;7.53;;;2.30;99.90;;;;;;4940019;29;20469;-91
2022/03/13 10:32:16;;;;;;;16.20;8.05;;;2.40;99.90;;;;;;4955621;29;20886;-91
2022/03/13 10:35:01;;;;;;;16.90;8.45;;;2.40;99.90;;;;;;4924159;29;20758;-91
2022/03/13 10:37:33;;;;;;;17.38;8.05;;;2.40;99.90;;;;;;4939627;29;20740;-91
2022/03/13 10:40:27;;;;;;;15.55;7.57;;;2.50;99.90;;;;;;4955372;29;20396;-91
2022/03/13 10:42:58;;;;;;;13.57;7.35;;;2.50;99.90;;;;;;4923635;29;20434;-91
2022/03/13 10:45:43;;;;;;;16.73;7.43;;;2.60;99.90;;;;;;4923805;29;20400;-91
2022/03/13 10:48:30;;;;;;;15.82;7.50;;;2.70;99.90;;;;;;4955582;29;20921;-91
2022/03/13 10:51:07;;;;;;;15.38;7.13;;;2.80;99.90;;;;;;4955817;29;20486;-91
2022/03/13 10:53:39;;;;;;;15.40;8.02;;;2.80;99.90;;;;;;4955168;29;20407;-91
2022/03/13 10:56:09;;;;;;;12.75;7.28;;;2.80;99.90;;;;;;4920210;29;20884;-91
2022/03/13 10:58:42;;;;;;;14.88;7.65;;;3.00;99.90;;;;;;4936392;29;20410;-91
2022/03/13 11:01:11;;;;;;;14.30;7.18;;;3.20;99.90;;;;;;4951966;29;20421;-91
2022/03/13 11:03:54;;;;;;;14.15;6.75;;;3.20;99.90;;;;;;4936143;29;20850;-91
2022/03/13 11:06:25;;;;;;;14.20;6.95;;;3.40;99.90;;;;;;4951914;29;20410;-91
2022/03/13 11:08:57;;;;;;;13.15;6.40;;;3.50;99.90;;;;;;4951213;28;20781;-91
2022/03/13 11:11:29;;;;;;;13.53;6.90;;;3.60;99.90;;;;;;4951599;29;20421;-91
2022/03/13 11:14:01;;;;;;;14.60;6.57;;;3.50;99.90;;;;;;4951789;29;20485;-89
2022/03/13 11:16:30;;;;;;;17.77;7.13;;;3.50;99.90;;;;;;4958708;28;20449;-90
2022/03/13 11:19:05;;;;;;;13.93;6.80;;;3.60;99.90;;;;;;4941583;29;20416;-91
2022/03/13 11:21:33;;;;;;;13.82;7.22;;;3.60;99.90;;;;;;4948059;29;20510;-90
2022/03/13 11:24:01;;;;;;;12.55;6.68;;;3.70;99.90;;;;;;4936453;29;20399;-90
2022/03/13 11:26:31;;;;;;;12.65;6.85;;;3.80;99.90;;;;;;4954504;29;20404;-90
2022/03/13 11:28:59;;;;;;;12.10;6.35;;;3.80;99.90;;;;;;4942333;29;20487;-92
2022/03/13 11:31:35;;;;;;;11.80;6.68;;;4.00;99.90;;;;;;4944172;28;20428;-90
2022/03/13 11:34:17;;;;;;;11.95;6.22;;;4.10;99.90;;;;;;4950590;29;20968;-92
2022/03/13 11:36:46;;;;;;;12.97;6.77;;;4.20;99.90;;;;;;4924910;29;20414;-90
2022/03/13 11:39:30;;;;;;;12.57;6.45;;;4.20;99.90;;;;;;4959684;28;21008;-88
2022/03/13 11:41:59;;;;;;;11.65;6.30;;;4.20;99.90;;;;;;4943549;28;20466;-88
2022/03/13 11:44:32;;;;;;;13.65;6.72;;;4.30;99.90;;;;;;4919376;29;20403;-89
2022/03/13 11:47:01;;;;;;;11.10;6.20;;;4.30;99.90;;;;;;4924009;29;20417;-89
2022/03/13 11:49:30;;;;;;;13.57;6.63;;;4.30;99.90;;;;;;4956004;28;20402;-88
2022/03/13 11:52:10;;;;;;;11.52;6.30;;;4.40;99.90;;;;;;4922318;29;20425;-90
2022/03/13 11:54:47;;;;;;;14.32;6.85;;;4.40;99.90;;;;;;4929235;29;20966;-88
2022/03/13 11:57:16;;;;;;;10.55;6.07;;;4.50;99.90;;;;;;4927928;29;20444;-89
2022/03/13 11:59:49;;;;;;;14.13;6.25;;;4.70;99.90;;;;;;4944583;29;20399;-90
2022/03/13 12:02:41;;;;;;;11.43;6.10;;;4.60;99.90;;;;;;4932092;29;20410;-90
2022/03/13 12:05:25;;;;;;;12.20;6.10;;;4.60;99.90;;;;;;4936117;29;20402;-91
2022/03/13 12:08:08;;;;;;;12.70;6.07;;;4.80;99.90;;;;;;4933589;29;20455;-91
2022/03/13 12:10:43;;;;;;;11.40;6.13;;;4.80;99.90;;;;;;4935794;29;20421;-92
2022/03/13 12:13:17;;;;;;;12.98;6.57;;;5.00;99.90;;;;;;4943446;29;20407;-91
2022/03/13 12:15:47;;;;;;;12.48;6.28;;;5.00;99.90;;;;;;4944929;29;20401;-91
2022/03/13 12:18:22;;;;;;;11.95;6.10;;;5.20;99.90;;;;;;4970333;28;20439;-91
2022/03/13 12:20:50;;;;;;;13.23;6.25;;;5.30;99.90;;;;;;4953759;29;20396;-90
2022/03/13 12:23:36;;;;;;;14.07;6.93;;;5.20;99.90;;;;;;4935215;29;20410;-92
2022/03/13 12:26:13;;;;;;;11.13;6.05;;;5.40;99.90;;;;;;4950852;29;20904;-92
2022/03/13 12:28:41;;;;;;;11.07;5.90;;;5.30;99.90;;;;;;4934525;29;20414;-91
2022/03/13 12:31:08;;;;;;;12.43;6.50;;;5.40;99.90;;;;;;4950075;29;20934;-90
2022/03/13 12:33:47;;;;;;;13.55;6.18;;;5.70;99.90;;;;;;4932201;29;20453;-92
2022/03/13 12:36:17;;;;;;;12.43;6.10;;;5.60;99.90;;;;;;4968484;28;20459;-90
2022/03/13 12:38:48;;;;;;;11.52;6.05;;;5.70;99.90;;;;;;4936841;29;20457;-93
2022/03/13 12:41:16;;;;;;;12.40;6.53;;;5.70;99.90;;;;;;4949976;29;20940;-92
2022/03/13 12:43:53;;;;;;;9.95;6.05;;;5.70;99.90;;;;;;4951414;29;20460;-92
2022/03/13 12:46:23;;;;;;;13.00;6.07;;;5.80;99.90;;;;;;4938483;29;20409;-90
2022/03/13 12:49:04;;;;;;;11.80;6.30;;;5.90;99.90;;;;;;4949508;28;20410;-92
2022/03/13 12:51:46;;;;;;;14.23;6.13;;;5.90;99.90;;;;;;4949851;29;20781;-93